Time;durP1;ratioP1;P1;durP2;ratioP2;P2;SDS_P1;SDS_P2;PMS_P1;PMS_P2;Temp;Humidity;BMP_temperature;BMP_pressure;BME280_temperature;BME280_humidity;BME280_pressure;Samples;Min_cycle;Max_cycle;Signal;HPM_P1;HPM_P2
2022/08/21 00:00:21;;;;;;;0.77;0.77;;;16.90;99.90;;;;;;5023128;28;20748;-62
2022/08/21 00:02:51;;;;;;;0.67;0.67;;;16.80;99.90;;;;;;5015970;28;20205;-61
2022/08/21 00:05:19;;;;;;;0.90;0.90;;;16.80;99.90;;;;;;5022070;28;20598;-61
2022/08/21 00:07:46;;;;;;;0.60;0.60;;;16.70;99.90;;;;;;5022689;28;20204;-61
2022/08/21 00:10:13;;;;;;;0.87;0.87;;;16.60;99.90;;;;;;5023090;28;20234;-61
2022/08/21 00:12:40;;;;;;;0.80;0.80;;;16.60;99.90;;;;;;5024401;28;20636;-60
2022/08/21 00:15:10;;;;;;;1.20;1.10;;;16.50;99.90;;;;;;5024123;28;20303;-62
2022/08/21 00:17:37;;;;;;;0.80;0.80;;;16.60;99.90;;;;;;5022463;28;20586;-61
2022/08/21 00:20:06;;;;;;;0.73;0.73;;;16.50;99.90;;;;;;5023832;28;20312;-61
2022/08/21 00:22:33;;;;;;;1.07;0.97;;;16.60;99.90;;;;;;5024214;28;20204;-60
2022/08/21 00:25:00;;;;;;;2.53;0.90;;;16.60;99.90;;;;;;5021715;28;20194;-62
2022/08/21 00:27:27;;;;;;;1.13;0.90;;;16.50;99.90;;;;;;5023339;28;20205;-60
2022/08/21 00:29:55;;;;;;;0.60;0.60;;;16.50;99.90;;;;;;5022732;28;20217;-61
2022/08/21 00:32:24;;;;;;;0.80;0.80;;;16.50;99.90;;;;;;5023441;28;20204;-62
2022/08/21 00:34:51;;;;;;;0.80;0.80;;;16.50;99.90;;;;;;5023324;28;20224;-61
2022/08/21 00:37:19;;;;;;;0.90;0.90;;;16.50;99.90;;;;;;5024217;28;20400;-60
2022/08/21 00:39:46;;;;;;;1.70;1.00;;;16.50;99.90;;;;;;5020496;28;20220;-63
2022/08/21 00:42:14;;;;;;;0.97;0.97;;;16.40;99.90;;;;;;5023943;28;20335;-62
2022/08/21 00:44:42;;;;;;;0.80;0.80;;;16.40;99.90;;;;;;5022056;28;20193;-59
2022/08/21 00:47:09;;;;;;;0.90;0.90;;;16.40;99.90;;;;;;5022995;28;20663;-60
2022/08/21 00:49:38;;;;;;;1.00;1.00;;;16.30;99.90;;;;;;5022619;28;20229;-60
2022/08/21 00:52:08;;;;;;;1.00;1.00;;;16.30;99.90;;;;;;5023850;28;20201;-60
2022/08/21 00:54:35;;;;;;;1.00;1.00;;;16.30;99.90;;;;;;5028350;28;20216;-58
2022/08/21 00:57:07;;;;;;;0.80;0.80;;;16.30;99.90;;;;;;5025395;28;20215;-60
2022/08/21 00:59:38;;;;;;;0.87;0.87;;;16.20;99.90;;;;;;5026005;28;20217;-60
2022/08/21 01:02:07;;;;;;;0.90;0.90;;;16.20;99.90;;;;;;5027038;28;20210;-62
2022/08/21 01:04:35;;;;;;;0.90;0.90;;;16.20;99.90;;;;;;5023898;28;20215;-60
2022/08/21 01:07:03;;;;;;;0.73;0.73;;;16.20;99.90;;;;;;5027574;28;20243;-60
2022/08/21 01:09:30;;;;;;;0.70;0.70;;;16.20;99.90;;;;;;5022435;28;20240;-60
2022/08/21 01:11:58;;;;;;;0.60;0.60;;;16.20;99.90;;;;;;5022276;28;20205;-60
2022/08/21 01:14:25;;;;;;;0.90;0.80;;;16.10;99.90;;;;;;5019611;28;20692;-62
2022/08/21 01:16:54;;;;;;;0.80;0.80;;;16.20;99.90;;;;;;5025335;28;20798;-60
2022/08/21 01:19:22;;;;;;;0.70;0.70;;;16.20;99.90;;;;;;5026024;28;20232;-61
2022/08/21 01:21:50;;;;;;;0.90;0.90;;;16.20;99.90;;;;;;5025379;28;20197;-62
2022/08/21 01:24:18;;;;;;;0.90;0.90;;;16.30;99.90;;;;;;5024430;28;20550;-61
2022/08/21 01:26:45;;;;;;;0.93;0.93;;;16.20;99.90;;;;;;5025456;28;20296;-61
2022/08/21 01:29:17;;;;;;;0.60;0.60;;;16.20;99.90;;;;;;5025650;28;20220;-61
2022/08/21 01:31:44;;;;;;;1.00;1.00;;;16.20;99.90;;;;;;5024850;28;20209;-60
2022/08/21 01:34:15;;;;;;;0.87;0.87;;;16.20;99.90;;;;;;5024731;28;20571;-61
2022/08/21 01:36:43;;;;;;;1.30;1.20;;;16.20;99.90;;;;;;5026411;28;20205;-61
2022/08/21 01:39:11;;;;;;;1.20;1.10;;;16.10;99.90;;;;;;5025659;28;20221;-62
2022/08/21 01:41:38;;;;;;;0.90;0.90;;;16.10;99.90;;;;;;5027110;28;20231;-62
2022/08/21 01:44:05;;;;;;;0.70;0.70;;;16.00;99.90;;;;;;5026853;28;20201;-62
2022/08/21 01:46:33;;;;;;;0.80;0.80;;;16.00;99.90;;;;;;5028899;28;20588;-62
2022/08/21 01:49:00;;;;;;;0.80;0.80;;;16.00;99.90;;;;;;5028015;28;20282;-62
2022/08/21 01:51:27;;;;;;;0.83;0.83;;;15.90;99.90;;;;;;5024514;28;20365;-61
2022/08/21 01:53:54;;;;;;;0.90;0.90;;;15.80;99.90;;;;;;5027788;28;20224;-61
2022/08/21 01:56:23;;;;;;;0.80;0.80;;;15.70;99.90;;;;;;5028047;28;20737;-60
2022/08/21 01:58:50;;;;;;;1.00;0.97;;;15.70;99.90;;;;;;5021567;28;20313;-62
2022/08/21 02:01:17;;;;;;;0.90;0.90;;;15.70;99.90;;;;;;5028087;28;20201;-60
2022/08/21 02:03:43;;;;;;;1.20;1.10;;;15.70;99.90;;;;;;5026869;28;20219;-62
2022/08/21 02:06:17;;;;;;;0.70;0.70;;;15.60;99.90;;;;;;5025813;28;20303;-63
2022/08/21 02:08:44;;;;;;;1.00;1.00;;;15.60;99.90;;;;;;5027647;28;20331;-59
2022/08/21 02:11:11;;;;;;;0.80;0.80;;;15.60;99.90;;;;;;5027668;28;20299;-60
2022/08/21 02:13:40;;;;;;;1.00;1.00;;;15.50;99.90;;;;;;5024098;28;20228;-62
2022/08/21 02:16:08;;;;;;;0.90;0.90;;;15.50;99.90;;;;;;5024933;28;20295;-61
2022/08/21 02:18:35;;;;;;;0.90;0.90;;;15.50;99.90;;;;;;5024729;28;20231;-62
2022/08/21 02:21:03;;;;;;;0.90;0.90;;;15.50;99.90;;;;;;5025097;28;20204;-60
2022/08/21 02:23:30;;;;;;;1.23;1.13;;;15.50;99.90;;;;;;5025509;28;20654;-60
2022/08/21 02:25:58;;;;;;;1.00;1.00;;;15.60;99.90;;;;;;5024422;28;20237;-59
2022/08/21 02:28:25;;;;;;;0.87;0.87;;;15.60;99.90;;;;;;5022080;28;20715;-60
2022/08/21 02:30:54;;;;;;;0.90;0.90;;;15.60;99.90;;;;;;5025550;28;20196;-59
2022/08/21 02:33:21;;;;;;;0.80;0.80;;;15.60;99.90;;;;;;5025668;28;20603;-61
2022/08/21 02:35:49;;;;;;;0.83;0.83;;;15.60;99.90;;;;;;5022257;28;20891;-60
2022/08/21 02:38:19;;;;;;;0.97;0.97;;;15.50;99.90;;;;;;5023624;28;20232;-60
2022/08/21 02:40:49;;;;;;;0.80;0.80;;;15.60;99.90;;;;;;5022972;28;20228;-59
2022/08/21 02:43:17;;;;;;;0.87;0.87;;;15.50;99.90;;;;;;5022980;28;20201;-61
2022/08/21 02:45:45;;;;;;;1.00;1.00;;;15.50;99.90;;;;;;5022294;28;20205;-61
2022/08/21 02:48:15;;;;;;;1.00;1.00;;;15.30;99.90;;;;;;5022356;28;20224;-61
2022/08/21 02:50:45;;;;;;;1.30;1.20;;;15.30;99.90;;;;;;5023475;28;20211;-60
2022/08/21 02:53:16;;;;;;;0.80;0.80;;;15.20;99.90;;;;;;5024156;28;20211;-60
2022/08/21 02:55:44;;;;;;;1.10;1.10;;;15.10;99.90;;;;;;5022017;28;20262;-60
2022/08/21 02:58:12;;;;;;;0.90;0.90;;;15.00;99.90;;;;;;5022847;28;20215;-60
2022/08/21 03:00:39;;;;;;;1.00;1.00;;;15.00;99.90;;;;;;5023718;28;20213;-61
2022/08/21 03:03:07;;;;;;;1.00;1.00;;;15.00;99.90;;;;;;5025268;28;20196;-60
2022/08/21 03:05:37;;;;;;;1.00;1.00;;;15.10;99.90;;;;;;5022687;28;20193;-61
2022/08/21 03:08:09;;;;;;;1.10;1.10;;;15.10;99.90;;;;;;5024017;28;20196;-58
2022/08/21 03:10:36;;;;;;;1.37;0.90;;;15.10;99.90;;;;;;5024390;28;20293;-61
2022/08/21 03:13:03;;;;;;;0.70;0.70;;;15.20;99.90;;;;;;5023388;28;20207;-61
2022/08/21 03:15:30;;;;;;;1.00;1.00;;;15.30;99.90;;;;;;5022887;28;20254;-60
2022/08/21 03:17:57;;;;;;;0.97;0.97;;;15.30;99.90;;;;;;5024613;28;20200;-60
2022/08/21 03:20:28;;;;;;;1.60;0.93;;;15.30;99.90;;;;;;5024856;28;20216;-61
2022/08/21 03:22:56;;;;;;;1.17;1.10;;;15.30;99.90;;;;;;5023616;28;20197;-60
2022/08/21 03:25:25;;;;;;;0.80;0.80;;;15.30;99.90;;;;;;5023448;28;20291;-61
2022/08/21 03:27:52;;;;;;;1.13;1.00;;;15.30;99.90;;;;;;5023284;28;20218;-61
2022/08/21 03:30:21;;;;;;;1.00;1.00;;;15.30;99.90;;;;;;5022563;28;20299;-60
2022/08/21 03:32:48;;;;;;;0.90;0.90;;;15.30;99.90;;;;;;5022343;28;20214;-60
2022/08/21 03:35:16;;;;;;;0.90;0.90;;;15.30;99.90;;;;;;5024170;28;20319;-60
2022/08/21 03:37:42;;;;;;;1.50;1.13;;;15.20;99.90;;;;;;5028959;28;20291;-60
2022/08/21 03:40:13;;;;;;;0.80;0.80;;;15.20;99.90;;;;;;5031549;28;20230;-60
2022/08/21 03:42:40;;;;;;;0.87;0.87;;;15.20;99.90;;;;;;5031193;28;20232;-60
2022/08/21 03:45:08;;;;;;;1.20;1.10;;;15.20;99.90;;;;;;5031401;28;20630;-60
2022/08/21 03:47:35;;;;;;;1.10;1.07;;;15.20;99.90;;;;;;5031495;28;20274;-61
2022/08/21 03:50:02;;;;;;;0.87;0.87;;;15.20;99.90;;;;;;5027751;28;20216;-60
2022/08/21 03:52:29;;;;;;;0.80;0.80;;;15.10;99.90;;;;;;5025693;28;20204;-60
2022/08/21 03:54:55;;;;;;;1.00;1.00;;;15.00;99.90;;;;;;5025502;28;20224;-60
2022/08/21 03:57:24;;;;;;;1.03;1.03;;;15.00;99.90;;;;;;5026566;28;20228;-60
2022/08/21 03:59:50;;;;;;;0.90;0.90;;;15.00;99.90;;;;;;5025147;28;20311;-60
2022/08/21 04:02:20;;;;;;;0.90;0.90;;;15.00;99.90;;;;;;5026079;28;20307;-59
2022/08/21 04:04:47;;;;;;;1.00;1.00;;;14.90;99.90;;;;;;5026117;28;20200;-60
2022/08/21 04:07:14;;;;;;;0.87;0.87;;;14.90;99.90;;;;;;5026649;28;20227;-60
2022/08/21 04:09:41;;;;;;;1.00;1.00;;;14.90;99.90;;;;;;5025900;28;20595;-60
2022/08/21 04:12:08;;;;;;;1.00;1.00;;;14.80;99.90;;;;;;5026658;28;20667;-60
2022/08/21 04:14:37;;;;;;;1.50;0.93;;;14.90;99.90;;;;;;5026067;28;20217;-60
2022/08/21 04:17:04;;;;;;;1.00;1.00;;;14.80;99.90;;;;;;5026547;28;20210;-60
2022/08/21 04:19:31;;;;;;;1.60;1.17;;;14.90;99.90;;;;;;5026494;28;20220;-61
2022/08/21 04:21:58;;;;;;;1.37;1.27;;;14.80;99.90;;;;;;5026146;28;20212;-60
2022/08/21 04:24:24;;;;;;;1.20;1.10;;;14.80;99.90;;;;;;5026063;28;20197;-60
2022/08/21 04:26:51;;;;;;;1.10;1.00;;;14.80;99.90;;;;;;5026598;28;20204;-60
2022/08/21 04:29:19;;;;;;;1.00;1.00;;;14.80;99.90;;;;;;5030653;28;20710;-60
2022/08/21 04:31:47;;;;;;;1.10;1.10;;;14.90;99.90;;;;;;5034746;28;20255;-61
2022/08/21 04:34:14;;;;;;;0.80;0.80;;;14.90;99.90;;;;;;5034873;28;20200;-60
2022/08/21 04:36:41;;;;;;;0.93;0.93;;;14.80;99.90;;;;;;5032140;28;20224;-60
2022/08/21 04:39:08;;;;;;;0.90;0.90;;;14.80;99.90;;;;;;5034109;28;20568;-60
2022/08/21 04:41:35;;;;;;;1.00;1.00;;;14.80;99.90;;;;;;5034979;28;20308;-61
2022/08/21 04:44:02;;;;;;;1.20;1.20;;;14.80;99.90;;;;;;5035004;28;20205;-60
2022/08/21 04:46:29;;;;;;;0.90;0.90;;;14.80;99.90;;;;;;5030333;28;20287;-60
2022/08/21 04:48:57;;;;;;;0.90;0.90;;;14.80;99.90;;;;;;5030197;28;20711;-60
2022/08/21 04:51:29;;;;;;;1.23;1.10;;;14.70;99.90;;;;;;5029477;28;20303;-60
2022/08/21 04:53:59;;;;;;;1.03;1.03;;;14.60;99.90;;;;;;5028407;28;20291;-61
2022/08/21 04:56:31;;;;;;;1.20;1.20;;;14.60;99.90;;;;;;5029291;28;20699;-61
2022/08/21 04:59:03;;;;;;;0.90;0.90;;;14.60;99.90;;;;;;5028705;28;20232;-60
2022/08/21 05:01:33;;;;;;;1.20;1.10;;;14.60;99.90;;;;;;5029503;28;20868;-60
2022/08/21 05:04:05;;;;;;;1.20;1.20;;;14.60;99.90;;;;;;5031736;28;20201;-60
2022/08/21 05:06:36;;;;;;;1.30;1.20;;;14.60;99.90;;;;;;5029558;28;20216;-60
2022/08/21 05:09:05;;;;;;;1.00;1.00;;;14.60;99.90;;;;;;5030147;28;20228;-60
2022/08/21 05:11:33;;;;;;;1.10;1.10;;;14.50;99.90;;;;;;5029283;28;20213;-60
2022/08/21 05:14:00;;;;;;;1.17;1.17;;;14.50;99.90;;;;;;5028933;28;20634;-61
2022/08/21 05:16:27;;;;;;;1.00;1.00;;;14.50;99.90;;;;;;5029187;28;20225;-60
2022/08/21 05:18:54;;;;;;;1.17;1.13;;;14.60;99.90;;;;;;5029326;28;20690;-61
2022/08/21 05:21:22;;;;;;;1.20;1.20;;;14.60;99.90;;;;;;5029448;28;20211;-61
2022/08/21 05:23:49;;;;;;;1.10;1.10;;;14.70;99.90;;;;;;5030310;28;20205;-61
2022/08/21 05:26:16;;;;;;;1.17;1.10;;;14.60;99.90;;;;;;5029242;28;20690;-61
2022/08/21 05:28:42;;;;;;;1.10;1.10;;;14.60;99.90;;;;;;5028527;28;21021;-61
2022/08/21 05:31:09;;;;;;;1.13;1.13;;;14.80;99.90;;;;;;5028588;28;20681;-61
2022/08/21 05:33:36;;;;;;;0.93;0.93;;;14.80;99.90;;;;;;5029277;28;20211;-61
2022/08/21 05:36:04;;;;;;;1.10;1.10;;;15.00;99.90;;;;;;5029743;28;20223;-62
2022/08/21 05:38:32;;;;;;;0.80;0.80;;;15.00;99.90;;;;;;5028735;28;20311;-61
2022/08/21 05:40:59;;;;;;;1.20;1.20;;;15.10;99.90;;;;;;5027643;28;20605;-61
2022/08/21 05:43:26;;;;;;;0.87;0.87;;;15.20;99.90;;;;;;5028378;28;20203;-61
2022/08/21 05:45:52;;;;;;;1.00;1.00;;;15.30;99.90;;;;;;5028720;28;20324;-60
2022/08/21 05:48:22;;;;;;;1.30;1.20;;;15.40;99.90;;;;;;5029304;28;20307;-63
2022/08/21 05:50:50;;;;;;;1.57;1.43;;;15.50;99.90;;;;;;5029279;28;20213;-59
2022/08/21 05:53:20;;;;;;;1.37;1.27;;;15.60;99.90;;;;;;5029563;28;20201;-59
2022/08/21 05:55:49;;;;;;;1.00;1.00;;;15.70;99.90;;;;;;5029241;28;20244;-60
2022/08/21 05:58:17;;;;;;;1.30;1.20;;;15.80;99.90;;;;;;5028478;28;20233;-61
2022/08/21 06:00:46;;;;;;;1.40;1.23;;;15.80;99.90;;;;;;5027915;28;20215;-61
2022/08/21 06:03:16;;;;;;;1.10;1.10;;;15.90;99.90;;;;;;5027691;28;20292;-60
2022/08/21 06:05:43;;;;;;;2.33;1.10;;;16.00;99.90;;;;;;5027654;28;20201;-61
2022/08/21 06:08:10;;;;;;;1.20;1.20;;;16.10;99.90;;;;;;5028334;28;20209;-61
2022/08/21 06:10:37;;;;;;;1.00;1.00;;;16.20;99.90;;;;;;5028442;28;20197;-61
2022/08/21 06:13:05;;;;;;;1.30;1.20;;;16.40;99.90;;;;;;5029463;28;20204;-60
2022/08/21 06:15:32;;;;;;;1.27;1.20;;;16.50;99.90;;;;;;5028700;28;20228;-62
2022/08/21 06:17:59;;;;;;;1.30;1.20;;;16.60;99.90;;;;;;5027384;28;20205;-62
2022/08/21 06:20:26;;;;;;;1.10;1.10;;;16.80;99.90;;;;;;5027915;28;20292;-62
2022/08/21 06:22:53;;;;;;;1.30;1.20;;;16.90;99.90;;;;;;5028327;28;20915;-61
2022/08/21 06:25:20;;;;;;;1.20;1.20;;;17.00;99.90;;;;;;5028345;28;20208;-61
2022/08/21 06:27:47;;;;;;;1.00;1.00;;;17.10;99.90;;;;;;5028780;28;20205;-61
2022/08/21 06:30:15;;;;;;;1.47;1.37;;;17.20;99.90;;;;;;5028379;28;20331;-61
2022/08/21 06:32:42;;;;;;;1.03;1.03;;;17.30;99.90;;;;;;5026235;28;20296;-60
2022/08/21 06:35:09;;;;;;;1.00;1.00;;;17.40;99.90;;;;;;5028138;28;20216;-60
2022/08/21 06:37:37;;;;;;;1.33;1.23;;;17.40;99.90;;;;;;5028478;28;20292;-61
2022/08/21 06:40:04;;;;;;;1.00;1.00;;;17.50;99.90;;;;;;5027602;28;20315;-61
2022/08/21 06:42:31;;;;;;;0.90;0.90;;;17.60;99.90;;;;;;5027921;28;20201;-61
2022/08/21 06:44:58;;;;;;;1.07;0.97;;;17.80;99.90;;;;;;5027255;28;20208;-60
2022/08/21 06:47:26;;;;;;;1.00;1.00;;;17.90;99.90;;;;;;5027923;28;20287;-64
2022/08/21 06:49:53;;;;;;;1.00;1.00;;;18.00;99.90;;;;;;5027100;28;20252;-60
2022/08/21 06:52:20;;;;;;;1.20;1.13;;;18.10;99.90;;;;;;5027852;28;20645;-61
2022/08/21 06:54:47;;;;;;;1.07;1.07;;;18.30;99.90;;;;;;5027503;28;20211;-61
2022/08/21 06:57:14;;;;;;;1.27;1.17;;;18.40;99.90;;;;;;5027608;28;20214;-60
2022/08/21 06:59:41;;;;;;;1.00;1.00;;;18.60;99.90;;;;;;5027047;28;20246;-61
2022/08/21 07:02:08;;;;;;;0.97;0.97;;;18.70;99.90;;;;;;5026102;28;20211;-60
2022/08/21 07:04:36;;;;;;;1.25;1.15;;;18.80;99.90;;;;;;5027164;28;20201;-60
2022/08/21 07:07:03;;;;;;;1.23;1.17;;;19.00;99.90;;;;;;5027474;28;20196;-60
2022/08/21 07:09:30;;;;;;;1.13;1.03;;;19.10;99.90;;;;;;5026991;28;20282;-60
2022/08/21 07:11:58;;;;;;;0.90;0.90;;;19.40;99.90;;;;;;5027452;28;20695;-60
2022/08/21 07:14:25;;;;;;;1.10;1.10;;;19.60;99.90;;;;;;5026077;28;20204;-60
2022/08/21 07:16:51;;;;;;;1.10;1.07;;;19.80;99.90;;;;;;5027078;28;20227;-60
2022/08/21 07:19:19;;;;;;;1.10;1.10;;;19.90;99.90;;;;;;5027520;28;20236;-60
2022/08/21 07:21:47;;;;;;;1.87;1.10;;;20.10;99.90;;;;;;5027123;28;20204;-60
2022/08/21 07:24:14;;;;;;;1.33;1.00;;;20.20;99.90;;;;;;5027077;28;20659;-61
2022/08/21 07:26:41;;;;;;;1.10;1.00;;;20.40;99.90;;;;;;5027538;28;20204;-59
2022/08/21 07:29:08;;;;;;;0.90;0.90;;;20.50;99.90;;;;;;5028728;28;20560;-62
2022/08/21 07:31:35;;;;;;;1.20;1.10;;;20.60;99.90;;;;;;5033399;28;20274;-61
2022/08/21 07:34:02;;;;;;;1.27;1.17;;;20.80;99.90;;;;;;5044996;28;20228;-62
2022/08/21 07:36:29;;;;;;;1.03;1.03;;;20.90;99.90;;;;;;5049289;28;20236;-63
2022/08/21 07:38:57;;;;;;;0.97;0.97;;;21.10;99.90;;;;;;5046546;28;20228;-61
2022/08/21 07:41:28;;;;;;;1.00;1.00;;;21.30;99.90;;;;;;5028255;28;20706;-61
2022/08/21 07:43:57;;;;;;;1.30;1.00;;;21.40;99.90;;;;;;5026860;28;20247;-61
2022/08/21 07:46:24;;;;;;;0.97;0.97;;;21.60;99.90;;;;;;5026401;28;20251;-61
2022/08/21 07:48:51;;;;;;;1.35;1.25;;;21.70;99.90;;;;;;5029406;28;20311;-61
2022/08/21 07:51:21;;;;;;;1.00;1.00;;;21.80;99.90;;;;;;5028034;28;20208;-62
2022/08/21 07:53:51;;;;;;;1.00;1.00;;;22.00;99.90;;;;;;5027080;28;20655;-61
2022/08/21 07:56:20;;;;;;;1.07;1.07;;;22.10;99.90;;;;;;5026511;28;20224;-60
2022/08/21 07:58:47;;;;;;;0.90;0.90;;;22.10;99.90;;;;;;5026098;28;20300;-61
2022/08/21 08:01:15;;;;;;;0.95;0.95;;;22.20;99.90;;;;;;5026559;28;21037;-61
2022/08/21 08:03:42;;;;;;;1.10;1.10;;;22.30;99.90;;;;;;5026026;28;20228;-59
2022/08/21 08:06:11;;;;;;;1.02;1.02;;;22.30;99.90;;;;;;5030301;28;20200;-62
2022/08/21 08:08:40;;;;;;;1.00;1.00;;;22.40;99.90;;;;;;5032132;28;20229;-60
2022/08/21 08:11:08;;;;;;;1.20;1.15;;;22.40;99.90;;;;;;5031953;28;20216;-61
2022/08/21 08:13:41;;;;;;;1.20;1.10;;;22.40;99.90;;;;;;5032973;28;20208;-60
2022/08/21 08:16:08;;;;;;;1.23;1.13;;;22.40;99.90;;;;;;5031217;28;20307;-59
2022/08/21 08:18:35;;;;;;;1.23;1.23;;;22.50;99.90;;;;;;5030548;28;20225;-60
2022/08/21 08:21:02;;;;;;;1.38;1.27;;;22.60;99.90;;;;;;5032315;28;20211;-62
2022/08/21 08:23:30;;;;;;;1.10;1.10;;;22.60;99.90;;;;;;5031836;28;20290;-61
2022/08/21 08:25:57;;;;;;;1.10;1.00;;;22.70;99.90;;;;;;5030015;28;20201;-61
2022/08/21 08:28:24;;;;;;;1.95;1.45;;;22.90;99.90;;;;;;5030597;28;20228;-62
2022/08/21 08:30:52;;;;;;;1.13;1.13;;;23.10;99.90;;;;;;5030627;28;20244;-62
2022/08/21 08:33:19;;;;;;;1.20;1.20;;;23.00;99.90;;;;;;5028572;28;20211;-60
2022/08/21 08:35:49;;;;;;;1.30;1.20;;;23.20;99.90;;;;;;5029793;28;20235;-59
2022/08/21 08:38:18;;;;;;;1.20;1.10;;;23.20;99.90;;;;;;5029894;28;20224;-60
2022/08/21 08:40:51;;;;;;;1.17;1.08;;;23.00;99.90;;;;;;5029778;28;20205;-62
2022/08/21 08:43:19;;;;;;;1.52;1.42;;;23.20;99.90;;;;;;5029925;28;20200;-61
2022/08/21 08:45:50;;;;;;;2.22;1.45;;;23.30;99.90;;;;;;5030384;28;20193;-59
2022/08/21 08:48:35;;;;;;;1.40;1.30;;;23.50;99.90;;;;;;5030088;28;20227;-60
2022/08/21 08:51:03;;;;;;;0.97;0.97;;;23.70;99.90;;;;;;5032162;28;20228;-60
2022/08/21 08:53:34;;;;;;;2.20;1.40;;;23.80;99.90;;;;;;5029275;28;20200;-59
2022/08/21 08:56:03;;;;;;;1.27;1.20;;;23.90;99.90;;;;;;5029745;28;20248;-60
2022/08/21 08:58:33;;;;;;;1.25;1.25;;;23.90;99.90;;;;;;5028795;28;20333;-61
2022/08/21 09:01:01;;;;;;;1.50;1.40;;;23.90;99.90;;;;;;5029699;28;20574;-59
2022/08/21 09:03:29;;;;;;;1.15;1.13;;;23.90;99.90;;;;;;5028938;28;20278;-60
2022/08/21 09:06:01;;;;;;;1.48;1.38;;;24.00;99.90;;;;;;5028496;28;20224;-59
2022/08/21 09:08:49;;;;;;;1.33;1.23;;;23.90;99.90;;;;;;5029199;28;20223;-60
2022/08/21 09:11:23;;;;;;;1.37;1.27;;;24.10;99.90;;;;;;5029338;28;20314;-61
2022/08/21 09:14:02;;;;;;;1.40;1.30;;;24.10;99.90;;;;;;5039453;28;20195;-62
2022/08/21 09:16:37;;;;;;;1.17;1.17;;;24.20;99.90;;;;;;5032856;28;20212;-61
2022/08/21 09:19:15;;;;;;;1.33;1.23;;;24.40;99.90;;;;;;5032887;28;20215;-59
2022/08/21 09:21:49;;;;;;;1.25;1.15;;;24.40;99.90;;;;;;5030747;28;20204;-63
2022/08/21 09:24:29;;;;;;;3.10;1.30;;;24.70;99.90;;;;;;5031009;28;20207;-61
2022/08/21 09:27:05;;;;;;;1.00;1.00;;;24.80;99.90;;;;;;5029377;28;20201;-60
2022/08/21 09:29:36;;;;;;;1.20;1.10;;;24.90;99.90;;;;;;5028056;28;20307;-60
2022/08/21 09:32:10;;;;;;;1.30;1.20;;;25.00;99.90;;;;;;5028334;28;20817;-63
2022/08/21 09:34:39;;;;;;;0.95;0.95;;;25.00;99.90;;;;;;5029079;28;20270;-61
2022/08/21 09:37:17;;;;;;;1.13;1.13;;;25.20;99.90;;;;;;5029439;28;20355;-60
2022/08/21 09:39:44;;;;;;;1.10;1.10;;;25.50;99.90;;;;;;5028579;28;20232;-61
2022/08/21 09:42:12;;;;;;;1.45;1.35;;;25.30;99.90;;;;;;5029249;28;20216;-60
2022/08/21 09:44:43;;;;;;;1.10;1.10;;;25.20;99.90;;;;;;5030466;28;20317;-61
2022/08/21 09:47:12;;;;;;;1.35;1.20;;;25.40;99.90;;;;;;5032495;28;20193;-63
2022/08/21 09:49:43;;;;;;;1.20;1.20;;;25.50;99.90;;;;;;5031795;28;20227;-62
2022/08/21 09:52:21;;;;;;;1.40;1.30;;;25.70;99.90;;;;;;5029133;28;20763;-62
2022/08/21 09:54:51;;;;;;;1.40;1.30;;;25.70;99.90;;;;;;5029178;28;20205;-60
2022/08/21 09:57:39;;;;;;;1.55;1.45;;;25.70;99.90;;;;;;5029123;28;20275;-62
2022/08/21 10:00:17;;;;;;;1.48;1.30;;;25.70;99.90;;;;;;5029783;28;20213;-62
2022/08/21 10:02:43;;;;;;;2.20;1.40;;;25.80;99.90;;;;;;5028208;28;20257;-60
2022/08/21 10:05:23;;;;;;;1.70;1.10;;;26.00;99.90;;;;;;5028148;28;20319;-61
2022/08/21 10:07:51;;;;;;;1.10;1.10;;;26.00;99.90;;;;;;5028793;28;20196;-62
2022/08/21 10:10:20;;;;;;;1.00;1.00;;;26.10;99.90;;;;;;5029429;28;20227;-62
2022/08/21 10:12:55;;;;;;;1.15;1.15;;;26.00;99.90;;;;;;5028325;28;20211;-61
2022/08/21 10:15:33;;;;;;;1.00;1.00;;;26.00;99.90;;;;;;5029252;28;20207;-60
2022/08/21 10:18:10;;;;;;;1.20;1.20;;;26.00;99.90;;;;;;5029778;28;20267;-61
2022/08/21 10:20:45;;;;;;;1.50;1.40;;;26.20;99.90;;;;;;5027531;28;20209;-61
2022/08/21 10:23:29;;;;;;;1.33;1.23;;;26.30;99.90;;;;;;5027897;28;20231;-62
2022/08/21 10:26:06;;;;;;;1.48;1.38;;;26.40;99.90;;;;;;5029689;28;20216;-59
2022/08/21 10:28:40;;;;;;;1.02;1.02;;;26.50;99.90;;;;;;5029748;28;20220;-60
2022/08/21 10:31:16;;;;;;;1.73;1.08;;;26.70;99.90;;;;;;5029840;28;20204;-62
2022/08/21 10:33:53;;;;;;;1.20;1.20;;;26.90;99.90;;;;;;5029787;28;20615;-62
2022/08/21 10:36:30;;;;;;;1.30;1.20;;;27.10;99.90;;;;;;5025710;28;20233;-61
2022/08/21 10:39:05;;;;;;;1.35;1.25;;;27.10;99.90;;;;;;5026468;28;20310;-62
2022/08/21 10:41:41;;;;;;;1.00;1.00;;;27.10;99.90;;;;;;5027149;28;20200;-61
2022/08/21 10:44:21;;;;;;;0.95;0.95;;;27.20;99.90;;;;;;5027059;28;20204;-61
2022/08/21 10:46:55;;;;;;;1.48;1.08;;;27.20;99.90;;;;;;5027852;28;20684;-64
2022/08/21 10:49:33;;;;;;;0.82;0.82;;;27.20;99.90;;;;;;5028675;28;20228;-61
2022/08/21 10:52:20;;;;;;;1.15;1.15;;;27.30;99.90;;;;;;5027487;28;20200;-61
2022/08/21 10:54:52;;;;;;;1.48;1.00;;;27.40;99.90;;;;;;5012038;28;20243;-62
2022/08/21 10:57:28;;;;;;;1.00;1.00;;;27.60;99.90;;;;;;5025672;28;20223;-63
2022/08/21 11:00:00;;;;;;;0.95;0.90;;;27.60;99.90;;;;;;5027420;28;21061;-61
2022/08/21 11:02:33;;;;;;;0.98;0.98;;;27.60;99.90;;;;;;5027891;28;20247;-62
2022/08/21 11:05:06;;;;;;;1.13;1.10;;;27.60;99.90;;;;;;5026485;28;20208;-61
2022/08/21 11:07:38;;;;;;;0.93;0.93;;;27.70;99.90;;;;;;5027986;28;20226;-60
2022/08/21 11:10:15;;;;;;;1.13;1.02;;;27.70;99.90;;;;;;5022233;28;20273;-61
2022/08/21 11:12:55;;;;;;;0.90;0.90;;;27.90;99.90;;;;;;5029489;28;20211;-61
2022/08/21 11:15:41;;;;;;;1.02;1.02;;;27.80;99.90;;;;;;5025606;28;20754;-62
2022/08/21 11:18:22;;;;;;;1.10;1.10;;;27.90;99.90;;;;;;5025562;28;20212;-61
2022/08/21 11:20:57;;;;;;;3.42;1.20;;;27.90;99.90;;;;;;5019939;28;20208;-61
2022/08/21 11:23:30;;;;;;;1.65;1.30;;;28.00;99.90;;;;;;5030315;28;20235;-62
2022/08/21 11:26:03;;;;;;;1.02;1.02;;;28.20;99.90;;;;;;5024459;28;20856;-61
2022/08/21 11:28:37;;;;;;;1.30;1.20;;;28.20;99.90;;;;;;5027784;28;20280;-60
2022/08/21 11:31:33;;;;;;;2.47;1.20;;;28.20;99.90;;;;;;5028529;28;20208;-60
2022/08/21 11:34:10;;;;;;;0.80;0.80;;;28.20;99.90;;;;;;5027685;28;20248;-61
2022/08/21 11:36:44;;;;;;;1.10;1.10;;;28.20;99.90;;;;;;5026730;28;20229;-62
2022/08/21 11:39:19;;;;;;;1.13;1.13;;;28.30;99.90;;;;;;5026023;28;20224;-62
2022/08/21 11:41:55;;;;;;;1.60;1.50;;;28.20;99.90;;;;;;5024723;28;20246;-61
2022/08/21 11:44:32;;;;;;;0.90;0.90;;;28.10;99.90;;;;;;5024325;28;20197;-62
2022/08/21 11:47:19;;;;;;;1.10;1.10;;;27.80;99.90;;;;;;5026136;28;20567;-61
2022/08/21 11:50:02;;;;;;;1.02;1.02;;;27.70;99.90;;;;;;5022217;28;20763;-62
2022/08/21 11:52:36;;;;;;;0.98;0.93;;;28.10;99.90;;;;;;5023227;28;20240;-61
2022/08/21 11:55:13;;;;;;;1.30;1.20;;;28.40;99.90;;;;;;5018658;28;20201;-62
2022/08/21 11:57:48;;;;;;;0.98;0.93;;;28.60;99.90;;;;;;5020714;28;20220;-61
2022/08/21 12:00:21;;;;;;;1.10;1.10;;;28.60;99.90;;;;;;5021005;28;20227;-61
2022/08/21 12:02:52;;;;;;;1.30;1.20;;;28.70;99.90;;;;;;5018199;28;20258;-61
2022/08/21 12:05:30;;;;;;;1.20;1.10;;;28.60;99.90;;;;;;5019482;28;20207;-62
2022/08/21 12:08:04;;;;;;;1.10;1.10;;;28.70;99.90;;;;;;5020560;28;20698;-61
2022/08/21 12:10:36;;;;;;;1.15;1.10;;;28.80;99.90;;;;;;5015802;28;20201;-61
2022/08/21 12:13:24;;;;;;;0.98;0.98;;;28.90;99.90;;;;;;5021667;28;20570;-61
2022/08/21 12:15:51;;;;;;;1.00;1.00;;;28.60;99.90;;;;;;5022097;28;20200;-60
2022/08/21 12:18:30;;;;;;;1.00;1.00;;;28.50;99.90;;;;;;5021791;28;20243;-62
2022/08/21 12:21:04;;;;;;;3.20;1.30;;;28.70;99.90;;;;;;5023828;28;20204;-60
2022/08/21 12:23:33;;;;;;;1.23;1.13;;;28.80;99.90;;;;;;5021484;28;20204;-61
2022/08/21 12:26:11;;;;;;;1.02;1.02;;;28.90;99.90;;;;;;5016654;28;20671;-62
2022/08/21 12:28:39;;;;;;;0.90;0.90;;;28.70;99.90;;;;;;5018781;28;20633;-60
2022/08/21 12:31:22;;;;;;;0.90;0.90;;;28.60;99.90;;;;;;5019936;28;20760;-62
2022/08/21 12:33:58;;;;;;;0.93;0.93;;;28.40;99.90;;;;;;5021479;28;20258;-60
2022/08/21 12:36:41;;;;;;;0.93;0.90;;;28.30;99.90;;;;;;5020822;28;20228;-61
2022/08/21 12:39:14;;;;;;;1.00;1.00;;;28.50;99.90;;;;;;5017535;28;20312;-62
2022/08/21 12:41:48;;;;;;;0.85;0.85;;;28.70;99.90;;;;;;5019151;28;20683;-60
2022/08/21 12:44:17;;;;;;;0.98;0.98;;;28.90;99.90;;;;;;5019785;28;20203;-62
2022/08/21 12:46:49;;;;;;;1.00;1.00;;;29.20;99.90;;;;;;5016416;28;20672;-61
2022/08/21 12:49:35;;;;;;;0.70;0.70;;;29.20;99.90;;;;;;5020315;28;20225;-61
2022/08/21 12:52:10;;;;;;;1.00;1.00;;;29.20;99.90;;;;;;5022489;28;20313;-61
2022/08/21 12:54:41;;;;;;;1.13;1.02;;;29.10;99.90;;;;;;5019706;28;20516;-61
2022/08/21 12:57:19;;;;;;;1.08;1.00;;;29.00;99.90;;;;;;5015091;28;21011;-62
2022/08/21 12:59:46;;;;;;;1.10;1.10;;;29.10;99.90;;;;;;5025403;28;20256;-61
2022/08/21 13:02:18;;;;;;;1.20;1.20;;;29.20;99.90;;;;;;5026207;28;20278;-61